Time;durP1;ratioP1;P1;durP2;ratioP2;P2;SDS_P1;SDS_P2;PMS_P1;PMS_P2;Temp;Humidity;BMP_temperature;BMP_pressure;BME280_temperature;BME280_humidity;BME280_pressure;Samples;Min_cycle;Max_cycle;Signal;HPM_P1;HPM_P2
2022/07/23 00:00:15;;;;;;;5.95;3.50;;;;;;;28.29;34.09;101011.44;5147567;27;20448;-64
2022/07/23 00:04:46;;;;;;;7.20;3.50;;;;;;;28.28;33.58;100998.88;5093261;27;20465;-64
2022/07/23 00:07:12;;;;;;;6.60;3.10;;;;;;;28.27;33.79;100996.44;5066441;28;20399;-64
2022/07/23 00:09:37;;;;;;;4.20;3.00;;;;;;;28.27;33.90;101004.59;5066277;28;20424;-64
2022/07/23 00:12:04;;;;;;;6.40;3.50;;;;;;;28.25;33.40;101004.88;5065723;28;20395;-64
2022/07/23 00:14:30;;;;;;;5.75;3.30;;;;;;;28.26;33.64;100997.53;5049909;28;20421;-64
2022/07/23 00:16:55;;;;;;;6.43;3.43;;;;;;;28.27;33.39;101001.88;5054591;28;20408;-65
2022/07/23 00:23:47;;;;;;;6.70;3.28;;;;;;;28.26;33.35;100998.34;5074757;27;20404;-64
2022/07/23 00:26:13;;;;;;;5.27;3.57;;;;;;;28.27;33.35;101002.72;5052479;28;20420;-64
2022/07/23 00:29:57;;;;;;;6.70;3.40;;;;;;;28.30;32.98;100998.59;5074311;28;20839;-64
2022/07/23 00:32:58;;;;;;;6.90;3.28;;;;;;;28.30;33.30;101001.34;5062382;27;2063492;-64
2022/07/23 00:35:26;;;;;;;4.35;3.00;;;;;;;28.27;33.23;100999.16;5128013;28;20399;-64
2022/07/23 00:37:51;;;;;;;7.28;3.33;;;;;;;28.31;33.14;101003.78;5127401;28;20371;-64
2022/07/23 00:40:17;;;;;;;7.40;3.40;;;;;;;28.29;32.88;101000.53;5127455;28;20763;-64
2022/07/23 00:42:42;;;;;;;5.93;3.50;;;;;;;28.31;32.85;101002.97;5127240;28;20375;-64
2022/07/23 00:45:09;;;;;;;5.43;3.40;;;;;;;28.29;32.79;100996.97;5127393;28;20383;-64
2022/07/23 00:47:35;;;;;;;7.03;3.38;;;;;;;28.29;32.96;101002.41;5116619;28;20442;-64
2022/07/23 00:50:19;;;;;;;5.47;3.20;;;;;;;28.26;33.29;100997.53;5080025;27;20481;-64
2022/07/23 00:52:45;;;;;;;9.40;3.40;;;;;;;28.18;33.25;100993.47;5066527;28;20817;-64
2022/07/23 00:55:12;;;;;;;8.73;4.05;;;;;;;28.11;33.40;100998.44;5062915;28;20378;-64
2022/07/23 00:57:39;;;;;;;6.70;3.97;;;;;;;28.14;33.47;100995.16;5056083;28;20384;-64
2022/07/23 01:00:08;;;;;;;6.78;3.65;;;;;;;28.10;33.69;100996.81;5051705;28;20385;-64
2022/07/23 01:02:33;;;;;;;6.87;3.93;;;;;;;28.06;33.77;100998.47;5065962;28;20388;-64
2022/07/23 01:04:59;;;;;;;6.88;3.60;;;;;;;28.06;33.68;100993.84;5052424;28;20411;-63
2022/07/23 01:07:24;;;;;;;8.73;3.60;;;;;;;27.99;33.68;100998.78;5060513;28;20760;-63
2022/07/23 01:11:57;;;;;;;4.32;3.25;;;;;;;27.95;33.89;101006.69;5075048;27;20832;-64
2022/07/23 01:14:22;;;;;;;8.98;3.72;;;;;;;27.95;33.68;101009.41;5066511;28;20403;-64
2022/07/23 01:16:49;;;;;;;7.53;3.58;;;;;;;27.93;33.98;101013.50;5064724;28;20450;-64
2022/07/23 01:19:16;;;;;;;9.15;4.00;;;;;;;27.85;34.16;101012.16;5066288;28;20467;-64
2022/07/23 01:22:56;;;;;;;7.43;3.60;;;;;;;27.82;33.87;101010.81;5094968;27;20818;-64
2022/07/23 01:25:22;;;;;;;6.97;3.30;;;;;;;27.77;34.33;101010.03;5076525;28;20393;-63
2022/07/23 01:27:49;;;;;;;9.10;3.70;;;;;;;27.80;34.20;101017.63;5080518;28;20424;-64
2022/07/23 01:30:15;;;;;;;7.63;3.88;;;;;;;27.72;34.21;101010.03;5066158;28;20909;-64
2022/07/23 01:32:40;;;;;;;9.30;3.60;;;;;;;27.72;34.04;101013.56;5065994;28;20968;-63
2022/07/23 01:35:07;;;;;;;6.32;3.60;;;;;;;27.69;34.27;101018.75;5066176;28;20458;-64
2022/07/23 01:37:33;;;;;;;7.40;3.65;;;;;;;27.68;34.10;101011.66;5078472;28;20813;-64
2022/07/23 01:39:58;;;;;;;7.10;3.77;;;;;;;27.62;33.80;101016.31;5066811;28;20383;-64
2022/07/23 01:42:25;;;;;;;5.18;3.25;;;;;;;27.64;33.86;101011.41;5066104;28;20538;-63
2022/07/23 01:44:50;;;;;;;10.45;4.00;;;;;;;27.63;34.19;101017.97;5066391;28;20758;-63
2022/07/23 01:47:16;;;;;;;6.50;3.47;;;;;;;27.61;34.01;101017.44;5074016;28;20389;-63
2022/07/23 01:49:42;;;;;;;6.95;3.60;;;;;;;27.51;34.10;101018.25;5086468;28;20469;-63
2022/07/23 01:52:10;;;;;;;6.80;3.40;;;;;;;27.45;34.25;101019.38;5071768;28;20386;-63
2022/07/23 01:54:38;;;;;;;5.47;3.80;;;;;;;27.43;34.47;101019.66;5073960;28;20391;-63
2022/07/23 01:57:04;;;;;;;6.75;3.33;;;;;;;27.46;34.24;101027.25;5080461;28;20411;-62
2022/07/23 01:59:30;;;;;;;8.53;3.60;;;;;;;27.39;34.67;101025.94;5065990;28;20877;-63
2022/07/23 02:01:55;;;;;;;5.75;3.55;;;;;;;27.37;34.58;101031.66;5080011;28;20475;-63
2022/07/23 02:05:33;;;;;;;5.07;3.50;;;;;;;27.30;34.49;101027.56;5069344;27;20400;-64
2022/07/23 02:07:59;;;;;;;6.17;3.60;;;;;;;27.24;34.87;101027.56;5066795;28;20396;-64
2022/07/23 02:10:27;;;;;;;7.10;3.72;;;;;;;27.18;35.16;101033.28;5066114;28;20392;-64
2022/07/23 02:12:53;;;;;;;7.60;3.75;;;;;;;27.17;34.67;101031.63;5064401;28;20384;-64
2022/07/23 02:15:19;;;;;;;8.15;3.50;;;;;;;27.09;34.66;101036.53;5066097;28;20778;-64
2022/07/23 02:17:44;;;;;;;10.63;3.95;;;;;;;26.97;35.11;101033.25;5066510;28;20467;-64
2022/07/23 02:20:11;;;;;;;5.70;3.53;;;;;;;26.87;35.05;101042.25;5066309;28;20483;-64
2022/07/23 02:22:37;;;;;;;5.80;3.43;;;;;;;26.89;35.08;101044.72;5065751;28;20388;-63
2022/07/23 02:25:07;;;;;;;6.10;3.50;;;;;;;26.87;35.59;101044.16;5065680;28;20411;-64
2022/07/23 02:27:33;;;;;;;6.30;3.50;;;;;;;26.68;35.46;101058.25;5066039;28;20391;-64
2022/07/23 02:29:58;;;;;;;9.37;3.60;;;;;;;26.56;35.56;101062.28;5065934;28;20392;-63
2022/07/23 02:32:24;;;;;;;7.13;3.58;;;;;;;26.50;35.64;101061.47;5065743;28;20394;-64
2022/07/23 02:34:50;;;;;;;6.60;3.57;;;;;;;26.48;35.67;101066.38;5066270;28;20386;-64
2022/07/23 02:37:16;;;;;;;7.80;3.67;;;;;;;26.52;35.43;101062.00;5065777;28;20384;-64
2022/07/23 02:41:50;;;;;;;7.00;3.80;;;;;;;26.67;35.40;101067.53;5049752;28;20821;-64
2022/07/23 02:44:15;;;;;;;7.33;3.80;;;;;;;26.64;35.61;101072.69;5027224;28;20947;-63
2022/07/23 02:46:41;;;;;;;8.97;3.67;;;;;;;26.46;35.90;101079.41;5026349;28;20482;-64
2022/07/23 02:49:06;;;;;;;7.93;4.07;;;;;;;26.47;35.88;101070.16;5026739;28;20376;-64
2022/07/23 02:51:32;;;;;;;7.60;4.30;;;;;;;26.47;35.60;101067.44;5026540;28;20387;-64
2022/07/23 02:53:57;;;;;;;7.43;3.80;;;;;;;26.62;35.61;101064.78;5026588;28;20422;-63
2022/07/23 02:56:23;;;;;;;6.30;4.00;;;;;;;26.52;36.32;101072.88;5025165;28;20395;-63
2022/07/23 02:58:48;;;;;;;7.67;4.03;;;;;;;26.29;37.63;101085.88;5026481;28;20441;-64
2022/07/23 03:01:14;;;;;;;7.68;4.35;;;;;;;26.18;38.44;101083.38;5025868;28;20423;-64
2022/07/23 03:03:39;;;;;;;9.90;4.60;;;;;;;26.07;39.23;101087.97;5026171;28;20391;-64
2022/07/23 03:06:05;;;;;;;8.33;4.60;;;;;;;25.89;40.04;101087.31;5026222;28;20442;-64
2022/07/23 03:08:30;;;;;;;9.43;5.07;;;;;;;25.67;40.45;101090.16;5024847;28;20401;-63
2022/07/23 03:10:56;;;;;;;12.52;4.97;;;;;;;25.86;40.47;101090.56;5026486;28;20368;-63
2022/07/23 03:13:21;;;;;;;12.00;5.20;;;;;;;25.87;40.76;101089.44;5025792;28;20904;-63
2022/07/23 03:15:47;;;;;;;10.93;5.50;;;;;;;25.68;41.01;101097.22;5026042;28;20392;-63
2022/07/23 03:18:12;;;;;;;11.00;5.47;;;;;;;25.78;41.14;101091.03;5025910;28;20778;-63
2022/07/23 03:20:38;;;;;;;8.63;5.32;;;;;;;25.85;41.13;101090.81;5025550;28;20493;-63
2022/07/23 03:23:03;;;;;;;12.93;5.60;;;;;;;25.94;40.88;101092.78;5026308;28;20392;-63
2022/07/23 03:25:29;;;;;;;10.70;5.50;;;;;;;26.02;40.93;101093.34;5025598;28;20394;-63
2022/07/23 03:27:54;;;;;;;12.07;5.10;;;;;;;26.05;40.79;101104.50;5025760;28;20483;-64
2022/07/23 03:30:20;;;;;;;11.32;5.55;;;;;;;26.11;40.73;101105.38;5025390;28;20390;-63
2022/07/23 03:32:45;;;;;;;11.27;5.67;;;;;;;26.08;40.78;101100.47;5025394;28;20898;-63
2022/07/23 03:35:11;;;;;;;10.70;5.20;;;;;;;26.12;40.84;101104.28;5025941;28;20383;-63
2022/07/23 03:37:36;;;;;;;12.90;5.67;;;;;;;26.19;40.81;101098.63;5025532;28;20411;-63
2022/07/23 03:40:02;;;;;;;9.85;5.78;;;;;;;26.32;40.49;101098.91;5025390;28;20423;-63
2022/07/23 03:42:28;;;;;;;9.57;5.33;;;;;;;26.45;40.31;101097.63;5025747;28;20448;-63
2022/07/23 03:44:53;;;;;;;12.80;5.43;;;;;;;26.56;40.21;101103.06;5025568;28;20384;-63
2022/07/23 03:47:21;;;;;;;13.07;5.78;;;;;;;26.74;40.06;101099.06;5025892;28;20908;-64
2022/07/23 03:49:48;;;;;;;15.70;6.22;;;;;;;26.91;39.65;101098.84;5025519;28;20470;-63
2022/07/23 03:52:14;;;;;;;9.95;5.85;;;;;;;27.02;39.57;101105.91;5017566;28;20430;-64
2022/07/23 03:54:39;;;;;;;10.40;5.43;;;;;;;27.18;39.14;101102.13;5012133;28;20887;-64
2022/07/23 03:57:05;;;;;;;11.63;5.57;;;;;;;27.39;39.03;101110.31;5012306;28;20766;-63
2022/07/23 03:59:30;;;;;;;11.70;5.40;;;;;;;27.57;38.73;101108.94;5012291;28;20387;-64
2022/07/23 04:01:56;;;;;;;14.20;6.00;;;;;;;27.73;38.49;101110.53;5011640;28;20702;-64
2022/07/23 04:04:21;;;;;;;11.43;5.63;;;;;;;27.94;37.79;101105.06;5011602;28;20454;-64
2022/07/23 04:06:47;;;;;;;14.90;5.63;;;;;;;28.09;37.58;101106.91;5012270;28;20384;-64
2022/07/23 04:09:13;;;;;;;9.73;5.22;;;;;;;28.16;36.50;101104.69;5011510;28;20391;-64
2022/07/23 04:11:38;;;;;;;14.23;7.05;;;;;;;28.32;36.29;101113.63;5011460;28;20493;-63
2022/07/23 04:14:04;;;;;;;17.63;8.15;;;;;;;28.46;35.91;101111.94;5011987;28;20870;-64
2022/07/23 04:16:31;;;;;;;16.83;9.40;;;;;;;28.52;35.51;101110.81;5011450;28;20384;-64
2022/07/23 04:18:57;;;;;;;15.25;9.25;;;;;;;28.69;35.18;101107.75;5011529;28;20391;-64
2022/07/23 04:21:23;;;;;;;13.35;6.47;;;;;;;28.83;34.72;101112.56;5011691;28;20924;-63
2022/07/23 04:23:49;;;;;;;9.05;5.45;;;;;;;29.04;34.08;101113.25;5011645;28;20454;-64
2022/07/23 04:26:16;;;;;;;7.53;5.03;;;;;;;29.29;33.47;101106.78;5012095;28;21840;-65
2022/07/23 04:28:42;;;;;;;9.23;5.30;;;;;;;29.65;33.16;101112.72;5012126;28;20823;-64
2022/07/23 04:31:07;;;;;;;10.27;5.10;;;;;;;29.92;33.05;101108.63;5011048;28;20922;-63
2022/07/23 04:33:33;;;;;;;7.25;4.70;;;;;;;30.28;32.54;101117.22;5012004;28;20439;-63
2022/07/23 04:35:58;;;;;;;9.23;5.37;;;;;;;30.80;31.91;101114.63;5011277;28;20874;-64
2022/07/23 04:38:24;;;;;;;12.83;5.50;;;;;;;31.42;31.04;101116.38;5011602;28;20408;-65
2022/07/23 04:40:49;;;;;;;12.77;5.23;;;;;;;32.23;29.84;101115.16;5011020;28;20424;-64
2022/07/23 04:43:15;;;;;;;10.10;4.90;;;;;;;33.11;28.52;101107.38;5011225;28;20484;-65
2022/07/23 04:45:41;;;;;;;10.05;4.88;;;;;;;33.88;27.42;101107.31;5011681;28;20388;-64
2022/07/23 04:48:06;;;;;;;8.90;4.73;;;;;;;34.67;26.26;101114.59;5011252;28;20391;-65
2022/07/23 04:50:32;;;;;;;6.30;5.30;;;;;;;35.27;25.35;101114.09;5011406;28;20387;-64
2022/07/23 04:52:58;;;;;;;8.27;4.80;;;;;;;35.82;24.64;101113.28;5010949;28;20392;-65
2022/07/23 04:55:23;;;;;;;15.60;5.67;;;;;;;36.75;23.93;101110.56;5011571;28;20902;-65
2022/07/23 04:57:49;;;;;;;12.47;5.27;;;;;;;37.40;23.04;101107.34;5010843;28;20381;-65
2022/07/23 05:00:15;;;;;;;11.07;6.40;;;;;;;38.11;21.93;101106.13;5011002;28;20547;-65
2022/07/23 05:02:40;;;;;;;11.60;7.63;;;;;;;38.51;21.31;101099.00;5010934;28;20757;-65
2022/07/23 05:05:06;;;;;;;12.93;8.80;;;;;;;39.27;20.68;101101.91;5009672;28;20392;-64
2022/07/23 05:07:32;;;;;;;16.80;9.50;;;;;;;39.61;20.33;101100.41;5010764;28;20762;-63
2022/07/23 05:09:57;;;;;;;12.67;8.60;;;;;;;39.55;20.00;101104.63;5010222;28;20388;-63
2022/07/23 05:12:22;;;;;;;41.80;11.20;;;;;;;39.91;19.47;101100.75;5011116;28;20396;-69
2022/07/23 05:14:48;;;;;;;15.07;9.07;;;;;;;40.76;19.09;101091.03;5010988;28;20380;-68
2022/07/23 05:17:13;;;;;;;13.18;7.97;;;;;;;41.54;18.36;101096.41;5010906;28;20388;-69
2022/07/23 05:19:39;;;;;;;12.30;7.67;;;;;;;41.82;18.00;101098.88;5010660;28;20384;-71
2022/07/23 05:22:04;;;;;;;12.83;7.10;;;;;;;42.37;16.77;101092.84;5010699;28;20388;-68
2022/07/23 05:24:30;;;;;;;12.95;7.45;;;;;;;42.84;16.70;101091.44;5010843;28;20376;-69
2022/07/23 05:26:55;;;;;;;12.70;6.60;;;;;;;43.45;16.08;101088.44;5011019;28;20384;-69
2022/07/23 05:29:21;;;;;;;9.33;6.90;;;;;;;43.93;15.38;101098.75;5010594;28;20878;-69
2022/07/23 05:31:46;;;;;;;12.30;7.30;;;;;;;44.30;14.92;101092.97;5010580;28;20400;-69
2022/07/23 05:34:12;;;;;;;10.77;7.00;;;;;;;44.65;14.91;101097.91;5010466;28;20391;-70
2022/07/23 05:36:37;;;;;;;9.60;6.57;;;;;;;45.17;14.60;101096.81;5010592;28;20771;-67
2022/07/23 05:39:03;;;;;;;12.38;8.48;;;;;;;45.47;14.09;101099.22;5010426;28;20384;-69
2022/07/23 05:41:29;;;;;;;11.77;8.88;;;;;;;45.87;13.89;101099.97;5008885;28;20466;-69
2022/07/23 05:43:54;;;;;;;13.07;6.90;;;;;;;46.05;13.70;101101.91;5010526;28;20392;-70
2022/07/23 05:46:20;;;;;;;12.73;6.90;;;;;;;46.32;13.62;101100.22;5010298;28;20394;-69
2022/07/23 05:48:49;;;;;;;10.85;6.68;;;;;;;46.37;13.21;101096.19;5010758;28;20396;-69
2022/07/23 05:51:19;;;;;;;10.07;6.75;;;;;;;46.52;12.77;101094.16;4978833;28;20492;-69
2022/07/23 05:53:45;;;;;;;10.20;6.75;;;;;;;46.97;12.68;101091.47;4981158;28;20392;-70
2022/07/23 05:56:10;;;;;;;8.83;5.80;;;;;;;46.72;12.80;101088.81;4971098;28;20902;-69
2022/07/23 05:58:36;;;;;;;11.10;6.40;;;;;;;47.23;12.79;101095.69;4965734;28;20552;-69
2022/07/23 06:01:01;;;;;;;9.30;5.27;;;;;;;47.26;12.50;101096.88;4963264;28;20427;-70
2022/07/23 06:03:27;;;;;;;6.85;5.28;;;;;;;46.89;13.07;101096.34;4971342;28;20953;-70
2022/07/23 06:05:52;;;;;;;9.77;5.33;;;;;;;47.19;13.29;101103.31;4971198;28;20391;-69
2022/07/23 06:08:17;;;;;;;7.15;5.60;;;;;;;46.76;13.67;101102.81;4970687;28;20397;-69
2022/07/23 06:10:43;;;;;;;10.23;5.70;;;;;;;47.53;13.25;101099.81;4970915;28;20387;-71
2022/07/23 06:13:08;;;;;;;6.28;5.45;;;;;;;47.97;12.39;101105.81;4957831;28;20400;-70
2022/07/23 06:15:34;;;;;;;7.93;5.17;;;;;;;48.20;11.59;101103.13;4964923;28;20412;-68
2022/07/23 06:17:59;;;;;;;11.25;5.80;;;;;;;48.08;11.82;101098.03;4962374;28;20447;-68
2022/07/23 06:20:25;;;;;;;9.03;5.60;;;;;;;48.30;11.70;101098.59;4967543;28;20421;-70
2022/07/23 06:22:50;;;;;;;8.53;6.40;;;;;;;48.17;13.26;101103.16;4965249;28;20391;-69
2022/07/23 06:25:16;;;;;;;10.87;7.53;;;;;;;47.91;13.62;101105.44;4962830;28;20961;-70
2022/07/23 06:27:41;;;;;;;10.27;7.60;;;;;;;46.94;14.78;101105.53;4952792;28;20397;-69
2022/07/23 06:30:08;;;;;;;11.40;7.40;;;;;;;47.25;14.60;101109.31;4951996;28;20914;-69
2022/07/23 06:32:33;;;;;;;8.05;7.07;;;;;;;47.08;14.99;101102.59;4964521;28;20400;-69
2022/07/23 06:34:59;;;;;;;9.73;7.10;;;;;;;47.00;15.10;101098.25;4963875;28;20399;-68
2022/07/23 06:37:24;;;;;;;9.97;6.90;;;;;;;46.97;14.78;101104.72;4970491;28;20391;-68
2022/07/23 06:39:50;;;;;;;10.70;6.13;;;;;;;47.20;15.03;101099.31;4970297;28;20418;-68
2022/07/23 06:42:15;;;;;;;10.65;6.85;;;;;;;47.06;15.28;101105.81;4970170;28;20395;-68
2022/07/23 06:44:41;;;;;;;10.63;7.17;;;;;;;47.17;15.15;101108.53;4970820;28;20932;-67
2022/07/23 06:47:07;;;;;;;9.35;6.13;;;;;;;46.98;15.14;101107.06;4970493;28;20410;-68
2022/07/23 06:49:32;;;;;;;8.43;6.53;;;;;;;46.02;15.64;101106.31;4970769;28;20824;-68
2022/07/23 06:51:58;;;;;;;7.80;6.70;;;;;;;46.95;14.81;101116.34;4970669;28;20379;-67
2022/07/23 06:54:23;;;;;;;9.32;6.32;;;;;;;47.25;14.93;101106.50;4966070;28;20389;-68
2022/07/23 06:56:49;;;;;;;11.67;6.87;;;;;;;46.91;15.39;101104.31;4969445;28;20387;-67
2022/07/23 06:59:14;;;;;;;9.70;6.63;;;;;;;46.90;15.10;101105.56;4968358;28;20515;-68
2022/07/23 07:01:41;;;;;;;9.67;6.83;;;;;;;46.95;15.14;101098.69;4963497;28;20423;-68
2022/07/23 07:04:06;;;;;;;16.33;7.43;;;;;;;46.58;15.24;101105.72;4965811;28;20396;-67
2022/07/23 07:06:32;;;;;;;8.23;6.37;;;;;;;46.03;15.32;101101.50;4959260;28;20394;-68
2022/07/23 07:08:57;;;;;;;8.90;6.70;;;;;;;45.45;16.04;101098.81;4969366;28;20786;-68
2022/07/23 07:11:25;;;;;;;11.60;6.50;;;;;;;44.34;16.93;101107.75;4957704;28;20435;-67
2022/07/23 07:13:51;;;;;;;12.48;6.15;;;;;;;43.87;17.14;101099.13;4970501;28;20454;-67
2022/07/23 07:16:17;;;;;;;10.80;6.13;;;;;;;43.60;17.44;101098.53;4950825;28;20509;-68
2022/07/23 07:18:42;;;;;;;11.33;5.83;;;;;;;42.17;18.78;101101.38;4960751;28;20985;-67
2022/07/23 07:21:08;;;;;;;11.73;5.80;;;;;;;42.13;18.86;101100.53;4969653;28;20422;-67
2022/07/23 07:23:33;;;;;;;9.38;5.93;;;;;;;41.87;19.14;101106.91;4969410;28;20410;-66
2022/07/23 07:25:59;;;;;;;11.17;5.80;;;;;;;41.06;20.26;101107.91;4966704;28;20382;-68
2022/07/23 07:28:24;;;;;;;11.30;5.57;;;;;;;40.14;21.17;101114.75;4962537;28;20534;-69
2022/07/23 07:30:50;;;;;;;10.98;5.38;;;;;;;40.00;20.96;101111.66;4959893;28;20775;-66
2022/07/23 07:33:15;;;;;;;11.63;5.50;;;;;;;39.67;21.57;101112.03;4973879;28;20805;-68
2022/07/23 07:35:41;;;;;;;12.43;5.50;;;;;;;39.02;21.88;101113.13;4973980;28;20438;-67
2022/07/23 07:38:06;;;;;;;10.37;5.20;;;;;;;38.80;22.15;101112.50;4973706;28;20402;-68
2022/07/23 07:40:32;;;;;;;11.97;5.20;;;;;;;38.21;23.16;101110.38;4973698;28;20430;-68
2022/07/23 07:42:57;;;;;;;10.73;5.43;;;;;;;37.97;23.09;101111.19;4973840;28;20790;-65
2022/07/23 07:45:24;;;;;;;9.48;5.40;;;;;;;38.01;23.08;101106.56;4973707;28;20475;-67
2022/07/23 07:47:52;;;;;;;7.63;5.30;;;;;;;37.53;23.46;101099.84;4973476;28;20383;-67
2022/07/23 07:50:19;;;;;;;9.45;5.05;;;;;;;36.96;24.20;101102.25;4973645;28;20399;-68
2022/07/23 07:52:44;;;;;;;11.30;5.28;;;;;;;36.85;24.33;101099.13;4973601;28;20391;-68
2022/07/23 07:55:10;;;;;;;10.93;5.30;;;;;;;36.55;24.89;101098.38;4967242;28;20405;-68
2022/07/23 07:57:36;;;;;;;11.55;5.35;;;;;;;36.18;24.95;101095.38;4964626;28;20392;-68
2022/07/23 08:00:04;;;;;;;8.33;5.17;;;;;;;35.91;25.69;101100.25;4962613;28;20796;-68
2022/07/23 08:02:38;;;;;;;9.75;5.38;;;;;;;36.02;25.75;101092.41;4963821;28;20468;-66
2022/07/23 08:05:04;;;;;;;9.27;5.25;;;;;;;35.70;25.68;101099.38;4960851;28;20505;-67
2022/07/23 08:07:30;;;;;;;8.83;5.50;;;;;;;35.71;25.96;101099.06;4968630;28;20897;-66
2022/07/23 08:09:56;;;;;;;10.88;5.28;;;;;;;35.77;25.03;101108.75;4958579;28;20396;-66
2022/07/23 08:12:21;;;;;;;10.35;4.95;;;;;;;35.77;25.30;101105.19;4953865;28;20393;-67
2022/07/23 08:14:47;;;;;;;7.70;4.55;;;;;;;35.85;25.40;101093.28;4958448;28;20435;-67
2022/07/23 08:17:12;;;;;;;13.50;5.22;;;;;;;35.87;25.60;101092.97;4954783;28;20764;-67
2022/07/23 08:19:37;;;;;;;9.87;5.13;;;;;;;36.05;24.93;101091.75;4956520;28;20403;-67
2022/07/23 08:22:03;;;;;;;7.27;5.20;;;;;;;35.66;25.81;101090.13;4956478;28;20540;-67
2022/07/23 08:24:28;;;;;;;8.73;5.23;;;;;;;35.40;24.39;101097.38;4957902;28;20379;-67
2022/07/23 08:26:54;;;;;;;10.10;5.20;;;;;;;35.66;24.49;101098.41;4962937;28;20389;-68
2022/07/23 08:29:19;;;;;;;8.97;5.07;;;;;;;35.92;24.41;101096.34;4967113;28;20397;-68
2022/07/23 08:31:45;;;;;;;8.93;4.43;;;;;;;36.26;22.87;101086.25;4962018;28;20813;-68
2022/07/23 08:34:10;;;;;;;9.87;5.00;;;;;;;36.45;22.08;101091.31;4972875;28;20434;-67
2022/07/23 08:36:36;;;;;;;8.13;4.70;;;;;;;36.65;21.59;101081.41;4966512;28;20408;-67
2022/07/23 08:39:03;;;;;;;8.83;4.60;;;;;;;36.82;20.37;101082.41;4967070;28;20392;-67
2022/07/23 08:41:29;;;;;;;7.38;4.38;;;;;;;37.00;20.50;101083.84;4959662;28;20435;-68
2022/07/23 08:43:56;;;;;;;8.82;4.40;;;;;;;37.32;19.93;101088.91;4971565;28;20398;-68
2022/07/23 08:46:25;;;;;;;9.07;4.28;;;;;;;37.39;19.83;101087.19;4968309;28;20408;-67
2022/07/23 08:48:50;;;;;;;9.70;4.72;;;;;;;37.52;20.05;101076.13;4963870;28;20762;-68
2022/07/23 08:51:17;;;;;;;6.10;4.03;;;;;;;37.66;19.71;101076.63;4972373;28;20409;-68
2022/07/23 08:53:44;;;;;;;6.63;3.97;;;;;;;37.90;19.19;101066.69;4972576;28;20489;-68
2022/07/23 08:56:11;;;;;;;8.07;4.13;;;;;;;38.04;18.63;101073.47;4972239;28;20443;-68
2022/07/23 08:58:36;;;;;;;11.43;4.47;;;;;;;38.17;19.21;101071.50;4965550;28;20424;-68
2022/07/23 09:01:02;;;;;;;8.90;4.00;;;;;;;38.25;18.87;101067.00;4965701;28;20471;-68
2022/07/23 09:03:34;;;;;;;6.87;4.40;;;;;;;38.22;18.30;101067.69;4958834;28;20402;-68
2022/07/23 09:06:01;;;;;;;8.38;4.50;;;;;;;38.02;18.54;101067.47;4972085;28;20929;-68
2022/07/23 09:08:41;;;;;;;7.32;4.07;;;;;;;38.16;18.70;101069.91;4958720;28;20388;-68
2022/07/23 09:11:10;;;;;;;7.55;4.03;;;;;;;38.36;19.19;101068.13;4958721;28;20385;-68
2022/07/23 09:13:53;;;;;;;8.48;4.45;;;;;;;38.50;18.37;101064.97;4958778;28;20426;-68
2022/07/23 09:16:24;;;;;;;7.60;3.72;;;;;;;38.50;18.42;101064.97;4971876;28;20965;-68
2022/07/23 09:18:57;;;;;;;8.20;4.33;;;;;;;38.66;18.65;101062.25;4972212;28;20398;-68
2022/07/23 09:21:30;;;;;;;7.53;3.80;;;;;;;38.62;18.47;101064.91;4958173;28;20458;-68
2022/07/23 09:24:05;;;;;;;7.45;4.20;;;;;;;38.70;18.71;101056.81;4971907;28;20387;-68
2022/07/23 09:26:36;;;;;;;7.47;4.07;;;;;;;38.81;18.63;101057.91;4964773;28;20400;-67
2022/07/23 09:29:02;;;;;;;7.45;3.80;;;;;;;38.90;18.46;101063.31;4966036;28;20391;-66
2022/07/23 09:31:42;;;;;;;8.70;4.30;;;;;;;38.94;17.66;101050.34;4958656;28;20483;-67
2022/07/23 09:34:21;;;;;;;6.53;3.80;;;;;;;38.91;17.27;101045.50;4971647;28;20400;-66
2022/07/23 09:36:48;;;;;;;7.22;3.90;;;;;;;39.00;17.43;101048.91;4971361;28;20392;-67
2022/07/23 09:39:17;;;;;;;6.78;3.83;;;;;;;39.04;17.79;101041.53;4949068;28;20413;-67
2022/07/23 09:41:45;;;;;;;8.63;3.80;;;;;;;39.01;18.06;101036.66;4979836;28;20431;-68
2022/07/23 09:44:16;;;;;;;8.48;3.97;;;;;;;39.07;18.39;101038.03;4971554;28;20392;-68
2022/07/23 09:46:50;;;;;;;7.78;4.20;;;;;;;39.19;18.36;101040.72;4970952;28;20426;-68
2022/07/23 09:49:23;;;;;;;8.52;3.90;;;;;;;39.15;18.09;101039.03;4971043;28;20388;-68
2022/07/23 09:51:56;;;;;;;9.27;4.20;;;;;;;39.18;18.16;101032.75;4965411;28;20436;-68
2022/07/23 09:54:26;;;;;;;7.53;4.03;;;;;;;39.25;18.38;101037.69;4963362;28;20407;-68
2022/07/23 09:56:53;;;;;;;6.38;3.95;;;;;;;39.29;18.15;101035.78;4970883;28;20396;-68
2022/07/23 09:59:24;;;;;;;5.85;3.70;;;;;;;39.05;18.54;101026.50;4971114;28;20890;-67
2022/07/23 10:01:51;;;;;;;6.90;4.00;;;;;;;38.81;18.45;101033.78;4957512;28;20419;-68
2022/07/23 10:04:18;;;;;;;8.40;3.90;;;;;;;39.04;19.01;101029.63;4969984;28;20428;-68
2022/07/23 10:06:46;;;;;;;8.65;4.20;;;;;;;38.52;19.06;101015.56;4971027;28;20399;-68
2022/07/23 10:09:16;;;;;;;9.07;4.35;;;;;;;38.83;18.90;101019.56;4971921;28;20499;-68
2022/07/23 10:11:42;;;;;;;8.50;4.13;;;;;;;38.84;19.44;101018.38;4970865;28;20964;-68
2022/07/23 10:14:07;;;;;;;6.50;3.60;;;;;;;38.36;18.87;101011.94;4957322;28;20879;-68
2022/07/23 10:16:33;;;;;;;5.32;3.80;;;;;;;38.61;18.47;101013.47;4967427;28;20400;-68
2022/07/23 10:18:59;;;;;;;6.22;3.83;;;;;;;38.78;18.46;101014.28;4967777;28;20479;-67
2022/07/23 10:21:34;;;;;;;5.67;3.90;;;;;;;38.51;19.52;101011.16;4970996;28;20453;-67
2022/07/23 10:24:45;;;;;;;8.17;4.20;;;;;;;38.33;19.75;101007.09;4969012;28;20395;-68
2022/07/23 10:27:35;;;;;;;6.77;3.73;;;;;;;38.06;20.26;101003.91;4971701;28;20395;-68
2022/07/23 10:30:05;;;;;;;5.53;4.22;;;;;;;38.00;19.96;100991.50;4971509;28;20387;-69
2022/07/23 10:33:26;;;;;;;5.70;4.18;;;;;;;38.22;19.15;100992.94;4956129;28;20902;-66
2022/07/23 10:36:06;;;;;;;7.28;3.90;;;;;;;38.32;19.10;100988.84;4954679;28;20411;-67
2022/07/23 10:38:56;;;;;;;7.80;4.07;;;;;;;38.43;19.58;100995.53;4967197;28;20536;-67
2022/07/23 10:42:07;;;;;;;6.70;3.90;;;;;;;38.29;19.70;100984.03;4943026;28;20435;-67
2022/07/23 10:44:40;;;;;;;7.63;4.35;;;;;;;38.23;19.97;100981.53;4972383;28;20766;-68
2022/07/23 10:47:16;;;;;;;7.95;3.97;;;;;;;38.23;19.65;100976.00;4951402;28;20456;-67
2022/07/23 10:49:41;;;;;;;7.75;4.40;;;;;;;38.11;19.58;100980.78;4951104;28;20417;-67
2022/07/23 10:52:13;;;;;;;5.47;3.70;;;;;;;38.12;19.68;100972.13;4984279;28;20397;-68
2022/07/23 10:54:42;;;;;;;7.15;3.90;;;;;;;38.18;20.32;100967.94;4950794;28;20408;-68
2022/07/23 10:57:09;;;;;;;5.23;3.37;;;;;;;38.05;19.65;100966.34;4953204;28;20413;-67
2022/07/23 11:00:10;;;;;;;7.65;3.80;;;;;;;37.90;19.61;100951.25;4951295;28;20411;-66
2022/07/23 11:02:37;;;;;;;7.18;4.10;;;;;;;37.88;19.98;100951.63;4964294;28;20553;-66
2022/07/23 11:05:08;;;;;;;6.13;3.90;;;;;;;38.00;19.87;100952.75;4998460;28;20925;-67
2022/07/23 11:07:35;;;;;;;8.23;4.10;;;;;;;38.15;19.91;100942.91;4968559;28;20395;-67
2022/07/23 11:10:02;;;;;;;8.93;4.00;;;;;;;38.02;20.42;100942.94;4967633;28;20385;-67
2022/07/23 11:12:27;;;;;;;8.83;4.10;;;;;;;37.91;20.09;100946.56;4954937;28;20396;-68
2022/07/23 11:15:09;;;;;;;7.83;3.87;;;;;;;38.00;20.40;100928.63;4973071;28;20486;-68
2022/07/23 11:17:37;;;;;;;7.63;4.20;;;;;;;37.97;20.17;100936.84;4974276;28;20398;-68
2022/07/23 11:20:17;;;;;;;8.63;4.07;;;;;;;38.00;20.43;100930.63;4974012;28;20447;-67
2022/07/23 11:22:42;;;;;;;8.75;3.92;;;;;;;37.98;19.67;100927.41;4961406;28;20455;-68
2022/07/23 11:25:08;;;;;;;6.20;4.32;;;;;;;37.92;18.93;100926.81;4973303;28;20478;-68
2022/07/23 11:27:48;;;;;;;8.88;4.05;;;;;;;38.15;18.81;100924.34;4960730;28;20399;-68
2022/07/23 11:30:26;;;;;;;7.85;3.90;;;;;;;38.07;18.34;100928.03;4973831;28;20924;-68
2022/07/23 11:32:53;;;;;;;7.80;3.92;;;;;;;38.11;18.36;100917.91;4971156;28;20413;-68
2022/07/23 11:35:28;;;;;;;8.02;3.97;;;;;;;38.17;18.95;100912.91;4971618;28;20383;-68
2022/07/23 11:38:22;;;;;;;7.10;4.30;;;;;;;38.28;18.53;100905.69;4959072;28;20491;-68